• Join FlightAware (Why Join?)
  • Login
  • US Flag 
10:04AM EDT


 

Airport Tracker/Info


-or-


 

Live Flight TrackerFlight Track Log ✈ AWE3988 ✈ 30-Apr-2013 ✈ KMHT - KPHL

Flight Track Log - Related Links

Times and Time Zones

All times are in EDT time to prevent confusion due to time zone crossing. See the AWE3988 flight status page for this flight to view local times or setup timezone preferences in your user account.

Time Position Orientation Groundspeed Altitude Reporting Facility
EDT Latitude Longitude Course Direction KTS MPH feet Rate Location/Type
04:02PM 42.9086 -71.4253 218° Southwest 163 188 1,400  Level Boston Center
04:03PM 42.8756 -71.4625 220° Southwest 163 188 3,300 2,220 Climbing Boston Center
04:04PM 42.9465 -71.8680 279° West  Level FlightAware Approximate
04:04PM 42.9097 -71.5586 296° West 185 213 5,900  Level Boston Center
04:05PM 42.9500 -72.0140 270° West  Level FlightAware Approximate
04:05PM 42.9456 -71.6347 303° West 236 272 8,500  Level Boston Center
04:06PM 42.9500 -72.1603 270° West  Level FlightAware Approximate
04:06PM 42.9942 -71.7333 304° West 278 320 11,100  Level Boston Center
04:07PM 42.9539 -72.3066 273° West  Level FlightAware Approximate
04:07PM 43.0053 -71.8297 279° West 283 326 13,600  Level Boston Center
04:08PM 43.0058 -71.9603 270° West 309 356 16,300 2,100 Climbing Boston Center
04:09PM 43.0042 -72.0653 269° West 320 368 17,900 1,860 Climbing Boston Center
04:10PM 43.0067 -72.2044 271° West 327 376 20,100 1,740 Climbing Boston Center
04:11PM 43.0089 -72.3208 272° West 327 376 21,400 1,500 Climbing Boston Center
04:12PM 43.0069 -72.4542 269° West 338 389 23,100 1,560 Climbing Boston Center
04:13PM 43.0047 -72.5906 269° West 350 403 24,600 1,440 Climbing Boston Center
04:14PM 43.0003 -72.7269 267° West 357 411 26,000 660 Climbing Boston Center
04:15PM 42.9997 -72.8689 270° West 370 426 26,000  Level Boston Center
04:16PM 43.0011 -73.0306 271° West 382 440 26,000  Level Boston Center
04:17PM 43.0003 -73.1725 270° West 382 440 26,000  Level Boston Center
04:18PM 42.9953 -73.3144 267° West 382 440 26,000  Level Boston Center
04:19PM 42.9442 -73.4383 241° Southwest 373 429 26,000  Level Boston Center
04:20PM 42.8806 -73.5564 234° Southwest 377 434 26,000  Level Boston Center
04:21PM 42.8231 -73.6742 236° Southwest 377 434 26,000  Level Boston Center
04:22PM 42.7572 -73.7833 231° Southwest 382 440 26,000  Level Boston Center
04:23PM 42.6972 -73.9064 236° Southwest 387 445 26,000  Level Boston Center
04:24PM 42.6417 -74.0206 237° Southwest 382 440 26,000  Level Boston Center
04:25PM 42.5836 -74.1433 237° Southwest 382 440 26,000  Level Boston Center
04:26PM 42.5256 -74.2600 236° Southwest 382 440 26,000  Level Boston Center
04:27PM 42.4692 -74.3794 237° Southwest 387 445 26,000  Level Boston Center
04:28PM 42.4089 -74.4956 235° Southwest 387 445 26,000 -300 Level Boston Center
04:29PM 42.3525 -74.6089 236° Southwest 382 440 25,400 -960 Descending Boston Center
04:30PM 42.2983 -74.7222 237° Southwest 376 433 24,100 -1,200 Descending Boston Center
04:32PM 42.1897 -74.9356 236° Southwest 365 420 21,900 -1,200 Descending New York Center
04:33PM 42.0992 -75.0250 216° Southwest 359 413 20,600 -1,260 Descending New York Center
04:34PM 42.0133 -75.0947 211° Southwest 364 419 19,400 -840 Descending New York Center
04:35PM 41.9361 -75.1567 211° Southwest 364 419 19,000 -240 Descending New York Center
04:36PM 41.8436 -75.2339 212° Southwest 369 425 19,000 -540 Level New York Center
04:37PM 41.7578 -75.3033 211° Southwest 369 425 18,000 -1,320 Descending New York Center
04:38PM 41.6761 -75.3700 211° Southwest 363 418 16,500 -1,560 Descending New York Center
04:39PM 41.6050 -75.4261 211° Southwest 350 403 14,900 -1,620 Descending New York Center
04:40PM 41.5278 -75.4872 211° Southwest 341 392 13,400 -1,500 Descending New York Center
04:41PM 41.4439 -75.5533 211° Southwest 331 381 12,000 -720 Descending New York Center
04:42PM 41.3686 -75.6142 211° Southwest 326 375 12,000  Level New York Center
04:43PM 41.2911 -75.6750 211° Southwest 326 375 12,000  Level New York Center
04:44PM 41.2069 -75.6908 188° South 310 357 12,000  Level New York Center
04:46PM 41.0344 -75.6867 179° South 313 360 12,000  Level New York Center
04:47PM 40.9531 -75.6864 180° South 318 366 12,000  Level New York Center
04:48PM 40.8656 -75.6881 181° South 318 366 12,000  Level New York Center
04:50PM 40.6781 -75.6856 179° South 328 377 12,000 -60 Level New York Center
04:51PM 40.5969 -75.6797 177° South 328 377 11,900 -600 Descending New York Center
04:52PM 40.5342 -75.5881 132° Southeast 302 348 10,800 -960 Descending New York Center
04:53PM 40.4836 -75.4972 126° Southeast 308 354 10,000 -600 Descending New York Center
04:54PM 40.4258 -75.4306 139° Southeast 297 342 9,700 -1,080 Descending New York Center
04:55PM 40.3561 -75.4556 195° South 261 300 7,900 -1,800 Descending New York Center
04:56PM 40.2864 -75.4756 192° South 266 306 6,100 -1,140 Descending New York Center
04:57PM 40.2525 -75.3889 117° Southeast 206 237 5,700 -600 Descending New York Center
04:58PM 40.2347 -75.3086 106° East 214 246 5,000 -780 Descending New York Center
04:59PM 40.1858 -75.3328 201° Southwest 169 194 4,200 -540 Descending New York Center
05:00PM 40.1508 -75.3739 222° Southwest 170 196 4,000 -120 Descending New York Center
05:01PM 40.1067 -75.3844 190° South 154 177 4,000 -180 Level New York Center
05:02PM 40.0792 -75.3419 130° Southeast 138 159 3,700 -600 Descending New York Center
05:02PM 40.0500 -75.3167 146° Southeast 175 201 3,000 -960 Descending Philadelphia TRACON